createdAt,value
2019-02-19T00:00:23.997Z,4.09
2019-02-19T00:01:23.983Z,4.08
2019-02-19T00:02:23.996Z,4.12
2019-02-19T00:03:23.964Z,4.05
2019-02-19T00:04:23.988Z,4.05
2019-02-19T00:05:23.969Z,3.96
2019-02-19T00:06:23.927Z,3.96
2019-02-19T00:07:23.991Z,3.99
2019-02-19T00:08:23.905Z,3.98
2019-02-19T00:09:23.896Z,3.91
2019-02-19T00:10:23.885Z,4.06
2019-02-19T00:11:23.876Z,3.99
2019-02-19T00:12:23.888Z,4.03
2019-02-19T00:13:23.853Z,4.02
2019-02-19T00:14:23.840Z,4.02
2019-02-19T00:15:23.827Z,4.02
2019-02-19T00:16:23.826Z,3.98
2019-02-19T00:17:23.842Z,4.00
2019-02-19T00:18:23.802Z,4.00
2019-02-19T00:19:23.786Z,3.96
2019-02-19T00:20:23.774Z,3.94
2019-02-19T00:21:23.793Z,3.99
2019-02-19T00:22:23.780Z,3.96
2019-02-19T00:23:23.742Z,3.90
2019-02-19T00:24:23.734Z,3.91
2019-02-19T00:25:23.721Z,3.94
2019-02-19T00:26:23.707Z,3.85
2019-02-19T00:27:23.722Z,4.02
2019-02-19T00:28:23.691Z,3.98
2019-02-19T00:29:23.689Z,3.98
2019-02-19T00:30:23.670Z,4.00
2019-02-19T00:31:23.658Z,3.94
2019-02-19T00:32:23.667Z,3.88
2019-02-19T00:33:23.635Z,3.98
2019-02-19T00:34:23.626Z,3.96
2019-02-19T00:35:23.614Z,3.92
2019-02-19T00:36:23.597Z,3.94
2019-02-19T00:37:23.618Z,3.96
2019-02-19T00:38:23.582Z,3.98
2019-02-19T00:39:23.564Z,3.94
2019-02-19T00:40:23.555Z,3.90
2019-02-19T00:41:23.542Z,3.90
2019-02-19T00:42:23.532Z,3.91
2019-02-19T00:43:23.548Z,3.90
2019-02-19T00:44:23.513Z,3.91
2019-02-19T00:45:23.501Z,3.92
2019-02-19T00:46:23.506Z,3.92
2019-02-19T00:47:23.533Z,3.84
2019-02-19T00:48:23.489Z,3.85
2019-02-19T00:49:23.499Z,3.91
2019-02-19T00:50:23.447Z,3.91
2019-02-19T00:51:23.432Z,3.88
2019-02-19T00:52:23.425Z,3.88
2019-02-19T00:53:23.449Z,3.87
2019-02-19T00:54:23.399Z,3.85
2019-02-19T00:55:23.388Z,3.92
2019-02-19T00:56:23.380Z,3.96
2019-02-19T00:57:23.367Z,3.82
2019-02-19T00:58:23.378Z,3.85
2019-02-19T00:59:23.346Z,3.90
2019-02-19T01:00:23.334Z,3.88
2019-02-19T01:01:23.330Z,3.82
2019-02-19T01:02:23.328Z,3.91
2019-02-19T01:03:23.499Z,3.91
2019-02-19T01:04:23.297Z,3.88
2019-02-19T01:05:23.280Z,3.88
2019-02-19T01:06:23.271Z,3.88
2019-02-19T01:07:23.256Z,3.88
2019-02-19T01:08:23.274Z,3.84
2019-02-19T01:09:23.239Z,3.88
2019-02-19T01:10:23.224Z,3.96
2019-02-19T01:11:23.222Z,3.92
2019-02-19T01:12:23.209Z,3.90
2019-02-19T01:13:23.224Z,3.90
2019-02-19T01:14:23.177Z,3.87
2019-02-19T01:15:25.443Z,3.88
2019-02-19T01:16:23.167Z,3.94
2019-02-19T01:17:23.149Z,4.00
2019-02-19T01:18:23.159Z,3.99
2019-02-19T01:19:23.123Z,3.92
2019-02-19T01:20:23.129Z,3.94
2019-02-19T01:21:23.100Z,3.91
2019-02-19T01:22:23.098Z,3.85
2019-02-19T01:23:23.105Z,3.85
2019-02-19T01:24:23.070Z,3.80
2019-02-19T01:25:23.064Z,3.85
2019-02-19T01:26:23.052Z,3.84
2019-02-19T01:27:23.036Z,3.87
2019-02-19T01:28:23.078Z,3.82
2019-02-19T01:29:23.030Z,3.81
2019-02-19T01:30:23.005Z,3.73
2019-02-19T01:31:22.990Z,3.81
2019-02-19T01:32:23.001Z,3.84
2019-02-19T01:33:22.977Z,3.74
2019-02-19T01:34:22.979Z,3.67
2019-02-19T01:35:22.948Z,3.66
2019-02-19T01:36:22.937Z,3.72
2019-02-19T01:37:22.925Z,3.70
2019-02-19T01:38:22.917Z,3.69
2019-02-19T01:39:22.925Z,3.63
2019-02-19T01:40:22.891Z,3.76
2019-02-19T01:41:22.880Z,3.74
2019-02-19T01:42:22.873Z,3.81
2019-02-19T01:43:22.876Z,3.81
2019-02-19T01:44:22.891Z,3.74
2019-02-19T01:45:22.851Z,3.78
2019-02-19T01:46:22.842Z,3.80
2019-02-19T01:47:22.819Z,3.85
2019-02-19T01:48:22.806Z,3.84
2019-02-19T01:49:22.849Z,3.81
2019-02-19T01:50:22.785Z,3.88
2019-02-19T01:51:22.786Z,3.92
2019-02-19T01:52:22.758Z,3.84
2019-02-19T01:53:22.755Z,3.88
2019-02-19T01:54:22.766Z,3.94
2019-02-19T01:55:22.726Z,3.92
2019-02-19T01:56:22.717Z,3.81
2019-02-19T01:57:22.728Z,3.87
2019-02-19T01:58:22.699Z,3.84
2019-02-19T01:59:22.710Z,3.84
2019-02-19T02:00:22.682Z,3.90
2019-02-19T02:01:22.668Z,3.88
2019-02-19T02:02:22.658Z,3.91
2019-02-19T02:03:22.670Z,3.91
2019-02-19T02:04:22.652Z,3.94
2019-02-19T02:05:22.618Z,3.91
2019-02-19T02:06:22.612Z,3.84
2019-02-19T02:07:22.605Z,3.90
2019-02-19T02:08:22.595Z,3.90
2019-02-19T02:09:22.598Z,3.85
2019-02-19T02:10:22.576Z,3.80
2019-02-19T02:11:22.553Z,3.90
2019-02-19T02:12:22.539Z,3.87
2019-02-19T02:13:22.543Z,3.84
2019-02-19T02:14:22.542Z,3.84
2019-02-19T02:15:22.511Z,3.84
2019-02-19T02:16:22.503Z,3.82
2019-02-19T02:17:22.496Z,3.84
2019-02-19T02:18:22.481Z,3.84
2019-02-19T02:19:22.499Z,3.92
2019-02-19T02:20:22.452Z,3.88
2019-02-19T02:21:22.450Z,3.84
2019-02-19T02:22:22.438Z,3.82
2019-02-19T02:23:22.434Z,3.91
2019-02-19T02:24:22.417Z,3.91
2019-02-19T02:25:22.419Z,3.84
2019-02-19T02:26:22.390Z,3.92
2019-02-19T02:27:22.388Z,3.94
2019-02-19T02:28:22.370Z,3.94
2019-02-19T02:29:22.357Z,3.88
2019-02-19T02:30:22.375Z,3.96
2019-02-19T02:31:22.343Z,3.88
2019-02-19T02:32:22.328Z,3.94
2019-02-19T02:33:22.319Z,3.84
2019-02-19T02:34:22.316Z,3.82
2019-02-19T02:35:22.319Z,3.87
2019-02-19T02:36:22.310Z,3.78
2019-02-19T02:37:22.309Z,3.73
2019-02-19T02:38:22.259Z,3.78
2019-02-19T02:39:22.246Z,3.81
2019-02-19T02:40:22.268Z,3.74
2019-02-19T02:41:22.221Z,3.64
2019-02-19T02:42:22.214Z,3.67
2019-02-19T02:43:22.205Z,3.69
2019-02-19T02:44:22.198Z,3.64
2019-02-19T02:45:22.241Z,3.60
2019-02-19T02:46:22.216Z,3.66
2019-02-19T02:47:22.156Z,3.56
2019-02-19T02:48:22.155Z,3.63
2019-02-19T02:49:22.138Z,3.67
2019-02-19T02:50:22.150Z,3.60
2019-02-19T02:51:22.121Z,3.66
2019-02-19T02:52:22.102Z,3.56
2019-02-19T02:53:22.095Z,3.60
2019-02-19T02:54:22.083Z,3.63
2019-02-19T02:55:22.096Z,3.62
2019-02-19T02:56:22.058Z,3.63
2019-02-19T02:57:22.046Z,3.54
2019-02-19T02:58:22.052Z,3.52
2019-02-19T02:59:22.032Z,3.59
2019-02-19T03:00:22.038Z,3.62
2019-02-19T03:01:22.014Z,3.62
2019-02-19T03:02:22.020Z,3.56
2019-02-19T03:03:21.984Z,3.59
2019-02-19T03:04:21.973Z,3.55
2019-02-19T03:05:21.982Z,3.55
2019-02-19T03:06:21.993Z,3.54
2019-02-19T03:07:21.940Z,3.52
2019-02-19T03:08:21.937Z,3.51
2019-02-19T03:09:21.921Z,3.59
2019-02-19T03:10:21.940Z,3.51
2019-02-19T03:11:21.893Z,3.48
2019-02-19T03:12:21.893Z,3.32
2019-02-19T03:13:21.877Z,3.37
2019-02-19T03:14:21.864Z,3.44
2019-02-19T03:15:21.870Z,3.41
2019-02-19T03:16:21.859Z,3.41
2019-02-19T03:17:21.830Z,3.49
2019-02-19T03:18:21.840Z,3.48
2019-02-19T03:19:21.841Z,3.44
2019-02-19T03:20:21.828Z,3.30
2019-02-19T03:21:21.783Z,3.32
2019-02-19T03:22:21.772Z,3.33
2019-02-19T03:23:21.761Z,3.32
2019-02-19T03:24:21.752Z,3.33
2019-02-19T03:25:21.768Z,3.33
2019-02-19T03:26:21.743Z,3.52
2019-02-19T03:27:21.719Z,3.42
2019-02-19T03:28:21.705Z,3.42
2019-02-19T03:29:21.695Z,3.46
2019-02-19T03:30:21.722Z,3.52
2019-02-19T03:31:21.684Z,3.51
2019-02-19T03:32:21.706Z,3.54
2019-02-19T03:33:21.659Z,3.55
2019-02-19T03:34:21.650Z,3.54
2019-02-19T03:35:21.652Z,3.62
2019-02-19T03:36:21.617Z,3.76
2019-02-19T03:37:21.616Z,3.70
2019-02-19T03:38:21.603Z,3.74
2019-02-19T03:39:21.597Z,3.70
2019-02-19T03:40:21.600Z,3.82
2019-02-19T03:41:21.561Z,3.85
2019-02-19T03:42:21.571Z,3.94
2019-02-19T03:43:21.556Z,3.94
2019-02-19T03:44:21.536Z,3.98
2019-02-19T03:45:21.555Z,3.92
2019-02-19T03:46:21.516Z,3.91
2019-02-19T03:47:21.514Z,3.96
2019-02-19T03:48:21.488Z,3.98
2019-02-19T03:49:21.478Z,3.90
2019-02-19T03:50:21.489Z,3.92
2019-02-19T03:51:21.466Z,3.90
2019-02-19T03:52:21.452Z,3.94
2019-02-19T03:53:21.454Z,3.90
2019-02-19T03:54:21.426Z,3.96
2019-02-19T03:55:21.452Z,3.98
2019-02-19T03:56:21.397Z,4.02
2019-02-19T03:57:21.389Z,4.02
2019-02-19T03:58:21.392Z,4.05
2019-02-19T03:59:21.366Z,4.03
2019-02-19T04:00:21.402Z,4.09
2019-02-19T04:01:21.375Z,4.12
2019-02-19T04:02:21.335Z,4.10
2019-02-19T04:03:21.321Z,4.18
2019-02-19T04:04:21.322Z,4.17
2019-02-19T04:05:21.297Z,4.21
2019-02-19T04:06:21.308Z,4.17
2019-02-19T04:07:21.279Z,4.23
2019-02-19T04:08:21.308Z,4.23
2019-02-19T04:09:21.256Z,4.23
2019-02-19T04:10:21.265Z,4.17
2019-02-19T04:11:21.255Z,4.18
2019-02-19T04:12:21.224Z,4.18
2019-02-19T04:13:21.223Z,4.13
2019-02-19T04:14:21.210Z,4.10
2019-02-19T04:15:21.200Z,4.18
2019-02-19T04:16:21.604Z,4.16
2019-02-19T04:17:21.183Z,4.21
2019-02-19T04:18:21.171Z,4.17
2019-02-19T04:19:21.146Z,4.18
2019-02-19T04:20:21.137Z,4.23
2019-02-19T04:21:21.145Z,4.28
2019-02-19T04:22:21.115Z,4.23
2019-02-19T04:23:21.102Z,4.27
2019-02-19T04:24:21.096Z,4.26
2019-02-19T04:25:21.101Z,4.23
2019-02-19T04:26:21.167Z,4.30
2019-02-19T04:27:21.098Z,4.23
2019-02-19T04:28:21.090Z,4.21
2019-02-19T04:29:21.034Z,4.26
2019-02-19T04:30:21.034Z,4.27
2019-02-19T04:31:21.056Z,4.31
2019-02-19T04:32:21.036Z,4.18
2019-02-19T04:33:21.037Z,4.27
2019-02-19T04:34:21.023Z,4.20
2019-02-19T04:35:20.982Z,4.27
2019-02-19T04:36:20.981Z,4.31
2019-02-19T04:37:20.947Z,4.38
2019-02-19T04:38:20.937Z,4.24
2019-02-19T04:39:20.934Z,4.30
2019-02-19T04:40:20.914Z,4.31
2019-02-19T04:41:20.932Z,4.27
2019-02-19T04:42:20.897Z,4.41
2019-02-19T04:43:20.881Z,4.31
2019-02-19T04:44:20.869Z,4.38
2019-02-19T04:45:20.864Z,4.36
2019-02-19T04:46:30.882Z,4.36
2019-02-19T04:47:20.841Z,4.35
2019-02-19T04:48:20.823Z,4.35
2019-02-19T04:49:20.835Z,4.43
2019-02-19T04:50:20.878Z,4.42
2019-02-19T04:51:20.817Z,4.41
2019-02-19T04:52:20.784Z,4.45
2019-02-19T04:53:20.770Z,4.49
2019-02-19T04:54:20.758Z,4.53
2019-02-19T04:55:20.747Z,4.54
2019-02-19T04:56:20.762Z,4.67
2019-02-19T04:57:20.742Z,4.60
2019-02-19T04:58:20.714Z,4.56
2019-02-19T04:59:20.707Z,4.59
2019-02-19T05:00:20.700Z,4.66
2019-02-19T05:01:20.732Z,4.72
2019-02-19T05:02:20.670Z,4.71
2019-02-19T05:03:20.660Z,4.77
2019-02-19T05:04:20.665Z,4.67
2019-02-19T05:05:20.636Z,4.66
2019-02-19T05:06:20.650Z,4.79
2019-02-19T05:07:20.615Z,4.75
2019-02-19T05:08:20.605Z,4.72
2019-02-19T05:09:20.638Z,4.82
2019-02-19T05:10:20.619Z,4.75
2019-02-19T05:11:20.592Z,4.74
2019-02-19T05:12:20.593Z,4.77
2019-02-19T05:13:20.549Z,4.74
2019-02-19T05:14:20.544Z,4.71
2019-02-19T05:15:20.527Z,4.69
2019-02-19T05:16:20.550Z,4.71
2019-02-19T05:17:20.513Z,4.69
2019-02-19T05:18:20.497Z,4.74
2019-02-19T05:19:20.490Z,4.72
2019-02-19T05:20:20.473Z,4.63
2019-02-19T05:21:20.488Z,4.66
2019-02-19T05:22:20.470Z,4.72
2019-02-19T05:23:20.492Z,4.71
2019-02-19T05:24:20.435Z,4.77
2019-02-19T05:25:20.421Z,4.71
2019-02-19T05:26:20.447Z,4.75
2019-02-19T05:27:20.396Z,4.67
2019-02-19T05:28:20.413Z,4.85
2019-02-19T05:29:20.375Z,4.86
2019-02-19T05:30:20.365Z,4.75
2019-02-19T05:31:20.380Z,4.82
2019-02-19T05:32:20.438Z,4.82
2019-02-19T05:33:20.344Z,4.82
2019-02-19T05:34:20.333Z,4.79
2019-02-19T05:35:20.397Z,4.79
2019-02-19T05:36:20.320Z,4.86
2019-02-19T05:37:20.287Z,4.86
2019-02-19T05:38:20.316Z,4.88
2019-02-19T05:39:20.264Z,4.94
2019-02-19T05:40:20.285Z,4.88
2019-02-19T05:41:20.261Z,4.89
2019-02-19T05:42:20.272Z,4.85
2019-02-19T05:43:20.226Z,4.93
2019-02-19T05:44:20.208Z,4.82
2019-02-19T05:45:20.201Z,4.97
2019-02-19T05:46:20.188Z,4.94
2019-02-19T05:47:20.200Z,4.94
2019-02-19T05:48:20.166Z,4.97
2019-02-19T05:49:21.147Z,4.89
2019-02-19T05:50:20.147Z,4.94
2019-02-19T05:51:20.132Z,4.89
2019-02-19T05:52:20.147Z,4.79
2019-02-19T05:53:20.109Z,4.85
2019-02-19T05:54:20.099Z,4.77
2019-02-19T05:55:20.100Z,4.77
2019-02-19T05:56:20.101Z,4.75
2019-02-19T05:57:20.091Z,4.72
2019-02-19T05:58:20.060Z,4.77
2019-02-19T05:59:20.045Z,4.72
2019-02-19T06:00:20.242Z,4.75
2019-02-19T06:01:20.026Z,4.74
2019-02-19T06:02:20.034Z,4.72
2019-02-19T06:03:20.011Z,4.91
2019-02-19T06:04:20.005Z,4.85
2019-02-19T06:05:19.980Z,4.74
2019-02-19T06:06:19.976Z,4.75
2019-02-19T06:07:19.996Z,4.89
2019-02-19T06:08:19.948Z,4.96
2019-02-19T06:09:19.935Z,4.93
2019-02-19T06:10:19.925Z,4.91
2019-02-19T06:11:19.914Z,5.01
2019-02-19T06:12:19.928Z,4.97
2019-02-19T06:13:19.893Z,4.98
2019-02-19T06:14:19.889Z,5.04
2019-02-19T06:15:19.882Z,5.14
2019-02-19T06:16:19.865Z,5.07
2019-02-19T06:17:19.873Z,5.19
2019-02-19T06:18:19.838Z,5.15
2019-02-19T06:19:19.842Z,5.12
2019-02-19T06:20:19.827Z,5.18
2019-02-19T06:21:19.813Z,5.19
2019-02-19T06:22:19.835Z,5.06
2019-02-19T06:23:19.808Z,5.04
2019-02-19T06:24:19.784Z,5.12
2019-02-19T06:25:19.780Z,5.16
2019-02-19T06:26:19.804Z,5.16
2019-02-19T06:27:19.764Z,5.11
2019-02-19T06:28:19.730Z,5.09
2019-02-19T06:29:19.721Z,5.11
2019-02-19T06:30:19.752Z,5.09
2019-02-19T06:31:19.709Z,5.03
2019-02-19T06:32:19.708Z,4.98
2019-02-19T06:33:19.671Z,4.94
2019-02-19T06:34:19.668Z,4.98
2019-02-19T06:35:19.670Z,4.97
2019-02-19T06:36:19.651Z,5.00
2019-02-19T06:37:19.649Z,4.94
2019-02-19T06:38:19.647Z,5.00
2019-02-19T06:39:19.633Z,5.00
2019-02-19T06:40:19.597Z,5.07
2019-02-19T06:41:19.587Z,5.06
2019-02-19T06:42:19.622Z,5.06
2019-02-19T06:43:19.562Z,5.11
2019-02-19T06:44:19.553Z,5.09
2019-02-19T06:45:19.545Z,5.12
2019-02-19T06:46:19.545Z,5.14
2019-02-19T06:47:19.566Z,5.11
2019-02-19T06:48:19.527Z,5.16
2019-02-19T06:49:19.501Z,5.07
2019-02-19T06:50:19.498Z,5.14
2019-02-19T06:51:19.475Z,5.14
2019-02-19T06:52:19.486Z,5.07
2019-02-19T06:53:19.450Z,5.15
2019-02-19T06:54:19.445Z,5.18
2019-02-19T06:55:19.443Z,5.15
2019-02-19T06:56:19.423Z,5.18
2019-02-19T06:57:19.436Z,5.19
2019-02-19T06:58:19.413Z,5.21
2019-02-19T06:59:19.388Z,5.27
2019-02-19T07:00:19.381Z,5.25
2019-02-19T07:01:20.729Z,5.27
2019-02-19T07:02:19.392Z,5.29
2019-02-19T07:03:19.349Z,5.25
2019-02-19T07:04:19.336Z,5.25
2019-02-19T07:05:19.321Z,5.24
2019-02-19T07:06:19.315Z,5.25
2019-02-19T07:07:19.321Z,5.25
2019-02-19T07:08:19.289Z,5.24
2019-02-19T07:09:19.279Z,5.21
2019-02-19T07:10:19.264Z,5.29
2019-02-19T07:11:19.255Z,5.32
2019-02-19T07:12:19.264Z,5.34
2019-02-19T07:13:19.229Z,5.30
2019-02-19T07:14:19.224Z,5.36
2019-02-19T07:15:19.227Z,5.27
2019-02-19T07:16:19.197Z,5.37
2019-02-19T07:17:19.218Z,5.40
2019-02-19T07:18:21.096Z,5.44
2019-02-19T07:19:19.173Z,5.37
2019-02-19T07:20:19.158Z,5.47
2019-02-19T07:21:19.146Z,5.37
2019-02-19T07:22:19.174Z,5.41
2019-02-19T07:23:19.126Z,5.43
2019-02-19T07:24:19.114Z,5.34
2019-02-19T07:25:19.223Z,5.41
2019-02-19T07:26:19.099Z,5.39
2019-02-19T07:27:19.103Z,5.37
2019-02-19T07:28:19.097Z,5.39
2019-02-19T07:29:19.055Z,5.41
2019-02-19T07:30:19.049Z,5.44
2019-02-19T07:31:19.032Z,5.41
2019-02-19T07:32:19.029Z,5.40
2019-02-19T07:33:19.034Z,5.41
2019-02-19T07:34:19.012Z,5.37
2019-02-19T07:35:19.034Z,5.41
2019-02-19T07:36:18.986Z,5.44
2019-02-19T07:37:18.968Z,5.51
2019-02-19T07:38:18.976Z,5.57
2019-02-19T07:39:18.944Z,5.48
2019-02-19T07:40:18.935Z,5.47
2019-02-19T07:41:18.924Z,5.51
2019-02-19T07:42:18.912Z,5.51
2019-02-19T07:43:18.924Z,5.57
2019-02-19T07:44:18.890Z,5.44
2019-02-19T07:45:18.879Z,5.59
2019-02-19T07:46:18.902Z,5.54
2019-02-19T07:47:24.466Z,5.55
2019-02-19T07:48:19.871Z,5.54
2019-02-19T07:49:18.868Z,5.57
2019-02-19T07:50:18.826Z,5.65
2019-02-19T07:51:18.837Z,5.66
2019-02-19T07:52:18.804Z,5.58
2019-02-19T07:53:18.813Z,5.58
2019-02-19T07:54:18.781Z,5.62
2019-02-19T07:55:18.773Z,5.69
2019-02-19T07:56:18.760Z,5.54
2019-02-19T07:57:18.745Z,5.57
2019-02-19T07:58:18.761Z,5.57
2019-02-19T07:59:18.728Z,5.59
2019-02-19T08:00:18.712Z,5.57
2019-02-19T08:01:18.705Z,5.65
2019-02-19T08:02:18.694Z,5.55
2019-02-19T08:03:18.711Z,5.65
2019-02-19T08:04:18.670Z,5.73
2019-02-19T08:05:18.656Z,5.59
2019-02-19T08:06:18.651Z,5.65
2019-02-19T08:07:18.636Z,5.67
2019-02-19T08:08:18.659Z,5.73
2019-02-19T08:09:18.679Z,5.75
2019-02-19T08:10:18.605Z,5.76
2019-02-19T08:11:18.592Z,5.73
2019-02-19T08:12:18.583Z,5.85
2019-02-19T08:13:18.593Z,5.82
2019-02-19T08:14:18.559Z,5.84
2019-02-19T08:15:18.553Z,5.85
2019-02-19T08:16:19.025Z,5.79
2019-02-19T08:17:18.532Z,5.73
2019-02-19T08:18:18.537Z,5.84
2019-02-19T08:19:18.503Z,5.75
2019-02-19T08:20:18.495Z,5.84
2019-02-19T08:21:18.482Z,5.82
2019-02-19T08:22:18.470Z,5.77
2019-02-19T08:23:18.496Z,5.85
2019-02-19T08:24:18.447Z,5.87
2019-02-19T08:25:18.451Z,5.87
2019-02-19T08:26:18.432Z,5.88
2019-02-19T08:27:18.414Z,5.82
2019-02-19T08:28:18.429Z,5.94
2019-02-19T08:29:18.398Z,6.02
2019-02-19T08:30:18.384Z,5.91
2019-02-19T08:31:18.377Z,6.06
2019-02-19T08:32:18.363Z,6.08
2019-02-19T08:33:18.505Z,6.03
2019-02-19T08:34:18.337Z,6.11
2019-02-19T08:35:18.328Z,6.11
2019-02-19T08:36:18.320Z,6.15
2019-02-19T08:37:18.314Z,6.03
2019-02-19T08:38:18.324Z,6.13
2019-02-19T08:39:18.285Z,6.13
2019-02-19T08:40:18.273Z,6.12
2019-02-19T08:41:18.265Z,6.15
2019-02-19T08:42:18.249Z,6.25
2019-02-19T08:43:18.260Z,6.28
2019-02-19T08:44:18.227Z,6.27
2019-02-19T08:45:18.215Z,6.31
2019-02-19T08:46:18.231Z,6.40
2019-02-19T08:47:18.201Z,6.43
2019-02-19T08:48:18.205Z,6.27
2019-02-19T08:49:18.224Z,6.38
2019-02-19T08:50:18.160Z,6.32
2019-02-19T08:51:18.263Z,6.38
2019-02-19T08:52:18.783Z,6.40
2019-02-19T08:53:18.153Z,6.43
2019-02-19T08:54:18.161Z,6.35
2019-02-19T08:55:18.104Z,6.43
2019-02-19T08:56:18.094Z,6.52
2019-02-19T08:57:18.085Z,6.60
2019-02-19T08:58:18.092Z,6.73
2019-02-19T08:59:18.069Z,6.50
2019-02-19T09:00:18.053Z,6.47
2019-02-19T09:01:18.040Z,6.55
2019-02-19T09:02:18.027Z,6.61
2019-02-19T09:03:18.053Z,6.53
2019-02-19T09:04:18.006Z,6.68
2019-02-19T09:05:17.998Z,6.74
2019-02-19T09:06:17.988Z,6.63
2019-02-19T09:07:17.982Z,6.71
2019-02-19T09:08:17.962Z,6.73
2019-02-19T09:09:17.975Z,6.67
2019-02-19T09:10:17.970Z,6.71
2019-02-19T09:11:17.940Z,6.70
2019-02-19T09:12:17.927Z,6.75
2019-02-19T09:13:17.907Z,6.71
2019-02-19T09:14:17.920Z,6.74
2019-02-19T09:15:17.882Z,6.79
2019-02-19T09:16:17.881Z,6.82
2019-02-19T09:17:17.864Z,6.85
2019-02-19T09:18:17.850Z,6.85
2019-02-19T09:19:17.863Z,6.89
2019-02-19T09:20:17.832Z,6.93
2019-02-19T09:21:17.818Z,6.92
2019-02-19T09:22:17.806Z,6.91
2019-02-19T09:23:17.797Z,6.99
2019-02-19T09:24:17.809Z,6.93
2019-02-19T09:25:17.772Z,7.08
2019-02-19T09:26:17.768Z,7.04
2019-02-19T09:27:17.750Z,6.97
2019-02-19T09:28:17.739Z,7.07
2019-02-19T09:29:17.858Z,7.16
2019-02-19T09:30:17.718Z,7.07
2019-02-19T09:31:17.749Z,7.15
2019-02-19T09:32:17.695Z,7.10
2019-02-19T09:33:17.686Z,7.18
2019-02-19T09:34:17.703Z,7.07
2019-02-19T09:35:17.667Z,7.07
2019-02-19T09:36:17.662Z,7.06
2019-02-19T09:37:17.640Z,7.16
2019-02-19T09:38:17.627Z,7.15
2019-02-19T09:39:17.640Z,7.21
2019-02-19T09:40:17.622Z,7.13
2019-02-19T09:41:17.596Z,7.33
2019-02-19T09:42:17.585Z,7.29
2019-02-19T09:43:17.572Z,7.40
2019-02-19T09:44:17.586Z,7.49
2019-02-19T09:45:17.582Z,7.60
2019-02-19T09:46:17.539Z,7.66
2019-02-19T09:47:17.528Z,7.57
2019-02-19T09:48:17.515Z,7.73
2019-02-19T09:49:17.529Z,7.69
2019-02-19T09:50:17.609Z,7.74
2019-02-19T09:51:17.481Z,7.84
2019-02-19T09:52:17.476Z,7.91
2019-02-19T09:53:17.459Z,7.91
2019-02-19T09:54:17.472Z,7.99
2019-02-19T09:55:17.436Z,8.20
2019-02-19T09:56:17.426Z,8.16
2019-02-19T09:57:17.418Z,8.29
2019-02-19T09:58:17.406Z,8.47
2019-02-19T09:59:17.413Z,8.53
2019-02-19T10:00:17.384Z,8.71
2019-02-19T10:01:17.370Z,8.71
2019-02-19T10:02:17.364Z,8.85
2019-02-19T10:03:17.351Z,8.93
2019-02-19T10:04:17.363Z,9.06
2019-02-19T10:05:17.328Z,9.30
2019-02-19T10:06:17.339Z,9.29
2019-02-19T10:07:19.262Z,9.37
2019-02-19T10:08:17.291Z,9.54
2019-02-19T10:09:17.306Z,9.60
2019-02-19T10:10:17.291Z,9.77
2019-02-19T10:11:17.288Z,9.96
2019-02-19T10:12:17.259Z,9.99
2019-02-19T10:13:17.236Z,10.23
2019-02-19T10:14:17.251Z,10.26
2019-02-19T10:15:17.218Z,10.39
2019-02-19T10:16:17.210Z,10.41
2019-02-19T10:17:17.194Z,10.52
2019-02-19T10:18:17.182Z,10.67
2019-02-19T10:19:17.194Z,10.76
2019-02-19T10:20:17.169Z,10.78
2019-02-19T10:21:17.148Z,10.79
2019-02-19T10:22:17.252Z,10.80
2019-02-19T10:23:17.127Z,10.80
2019-02-19T10:24:17.138Z,10.87
2019-02-19T10:25:17.105Z,10.95
2019-02-19T10:26:17.090Z,11.05
2019-02-19T10:27:17.078Z,11.11
2019-02-19T10:28:17.075Z,11.08
2019-02-19T10:29:17.081Z,11.20
2019-02-19T10:30:17.047Z,11.15
2019-02-19T10:31:17.041Z,11.23
2019-02-19T10:32:17.027Z,11.28
2019-02-19T10:33:17.012Z,11.30
2019-02-19T10:34:17.023Z,11.38
2019-02-19T10:35:16.995Z,11.49
2019-02-19T10:36:16.985Z,11.62
2019-02-19T10:37:16.974Z,11.69
2019-02-19T10:38:16.959Z,11.84
2019-02-19T10:39:16.967Z,11.88
2019-02-19T10:40:16.935Z,12.04
2019-02-19T10:41:16.925Z,12.17
2019-02-19T10:42:16.912Z,12.21
2019-02-19T10:43:16.902Z,12.36
2019-02-19T10:44:16.915Z,12.47
2019-02-19T10:45:16.877Z,12.53
2019-02-19T10:46:16.868Z,12.62
2019-02-19T10:47:16.857Z,12.68
2019-02-19T10:48:18.922Z,12.72
2019-02-19T10:49:16.886Z,12.83
2019-02-19T10:50:16.827Z,12.84
2019-02-19T10:51:16.822Z,12.80
2019-02-19T10:52:16.804Z,12.76
2019-02-19T10:53:16.790Z,12.63
2019-02-19T10:54:16.788Z,12.55
2019-02-19T10:55:16.795Z,12.40
2019-02-19T10:56:16.757Z,12.35
2019-02-19T10:57:16.749Z,12.21
2019-02-19T10:58:22.555Z,12.22
2019-02-19T10:59:16.728Z,12.28
2019-02-19T11:00:16.738Z,12.32
2019-02-19T11:01:16.701Z,12.46
2019-02-19T11:02:16.690Z,12.73
2019-02-19T11:03:16.680Z,12.73
2019-02-19T11:04:16.671Z,12.98
2019-02-19T11:05:16.694Z,13.14
2019-02-19T11:06:16.647Z,13.42
2019-02-19T11:07:16.638Z,13.63
2019-02-19T11:08:16.629Z,13.82
2019-02-19T11:09:16.622Z,13.88
2019-02-19T11:10:16.628Z,13.94
2019-02-19T11:11:16.593Z,14.04
2019-02-19T11:12:16.583Z,14.08
2019-02-19T11:13:16.579Z,14.28
2019-02-19T11:14:16.561Z,14.26
2019-02-19T11:15:17.464Z,14.36
2019-02-19T11:16:16.542Z,14.52
2019-02-19T11:17:16.528Z,14.34
2019-02-19T11:18:16.533Z,14.22
2019-02-19T11:19:16.512Z,14.09
2019-02-19T11:20:16.524Z,14.05
2019-02-19T11:21:19.648Z,14.09
2019-02-19T11:22:16.477Z,13.91
2019-02-19T11:23:16.464Z,13.96
2019-02-19T11:24:16.456Z,13.78
2019-02-19T11:25:16.467Z,13.73
2019-02-19T11:26:16.435Z,13.63
2019-02-19T11:27:16.846Z,13.53
2019-02-19T11:28:16.418Z,13.45
2019-02-19T11:29:16.420Z,13.40
2019-02-19T11:30:16.438Z,13.23
2019-02-19T11:31:16.379Z,13.17
2019-02-19T11:32:16.368Z,13.04
2019-02-19T11:33:16.361Z,13.05
2019-02-19T11:34:16.345Z,13.08
2019-02-19T11:35:16.359Z,12.91
2019-02-19T11:36:16.323Z,12.86
2019-02-19T11:37:16.313Z,12.73
2019-02-19T11:38:16.300Z,12.79
2019-02-19T11:39:16.308Z,12.93
2019-02-19T11:40:16.317Z,13.17
2019-02-19T11:41:16.279Z,13.53
2019-02-19T11:42:16.272Z,14.01
2019-02-19T11:43:16.243Z,14.41
2019-02-19T11:44:16.232Z,14.71
2019-02-19T11:45:16.243Z,14.95
2019-02-19T11:46:16.212Z,14.93
2019-02-19T11:47:16.200Z,15.08
2019-02-19T11:48:16.193Z,15.25
2019-02-19T11:49:16.175Z,15.26
2019-02-19T11:50:16.203Z,15.32
2019-02-19T11:51:16.155Z,15.41
2019-02-19T11:52:16.150Z,15.52
2019-02-19T11:53:16.138Z,15.62
2019-02-19T11:54:16.122Z,15.52
2019-02-19T11:55:16.139Z,15.54
2019-02-19T11:56:16.098Z,15.54
2019-02-19T11:57:16.088Z,15.43
2019-02-19T11:58:16.078Z,15.43
2019-02-19T11:59:16.076Z,15.43
2019-02-19T12:00:16.111Z,15.48
2019-02-19T12:01:16.049Z,15.36
2019-02-19T12:02:16.041Z,15.30
2019-02-19T12:03:16.025Z,15.45
2019-02-19T12:04:16.018Z,15.43
2019-02-19T12:05:16.028Z,15.48
2019-02-19T12:06:15.992Z,15.59
2019-02-19T12:07:15.987Z,15.73
2019-02-19T12:08:15.971Z,15.84
2019-02-19T12:09:15.960Z,15.91
2019-02-19T12:10:15.984Z,15.96
2019-02-19T12:11:15.950Z,15.98
2019-02-19T12:12:15.927Z,16.17
2019-02-19T12:13:15.917Z,16.13
2019-02-19T12:14:15.905Z,16.09
2019-02-19T12:15:15.944Z,16.08
2019-02-19T12:16:15.885Z,16.09
2019-02-19T12:17:15.884Z,16.06
2019-02-19T12:18:15.869Z,16.13
2019-02-19T12:19:15.852Z,16.26
2019-02-19T12:20:15.866Z,16.28
2019-02-19T12:21:15.829Z,16.24
2019-02-19T12:22:15.821Z,16.28
2019-02-19T12:23:15.811Z,16.32
2019-02-19T12:24:15.801Z,16.29
2019-02-19T12:25:15.812Z,16.33
2019-02-19T12:26:15.785Z,16.26
2019-02-19T12:27:15.768Z,16.29
2019-02-19T12:28:15.762Z,16.32
2019-02-19T12:29:15.747Z,16.18
2019-02-19T12:30:15.776Z,16.26
2019-02-19T12:31:15.722Z,16.37
2019-02-19T12:32:17.866Z,16.22
2019-02-19T12:33:15.707Z,16.33
2019-02-19T12:34:15.692Z,16.33
2019-02-19T12:35:15.682Z,16.34
2019-02-19T12:36:15.697Z,16.34
2019-02-19T12:37:15.655Z,16.25
2019-02-19T12:38:15.663Z,16.21
2019-02-19T12:39:15.639Z,16.10
2019-02-19T12:40:15.627Z,16.10
2019-02-19T12:41:15.639Z,16.18
2019-02-19T12:42:15.602Z,16.00
2019-02-19T12:43:15.588Z,15.99
2019-02-19T12:44:15.580Z,15.99
2019-02-19T12:45:15.569Z,16.05
2019-02-19T12:46:15.582Z,15.95
2019-02-19T12:47:15.544Z,15.96
2019-02-19T12:48:15.531Z,16.00
2019-02-19T12:49:16.521Z,15.99
2019-02-19T12:50:15.512Z,16.21
2019-02-19T12:51:15.528Z,16.22
2019-02-19T12:52:15.492Z,16.25
2019-02-19T12:53:15.485Z,16.25
2019-02-19T12:54:15.469Z,16.24
2019-02-19T12:55:15.460Z,16.14
2019-02-19T12:56:15.470Z,16.08
2019-02-19T12:57:15.434Z,16.13
2019-02-19T12:58:15.429Z,16.08
2019-02-19T12:59:15.423Z,16.08
2019-02-19T13:00:15.404Z,16.02
2019-02-19T13:01:16.105Z,15.95
2019-02-19T13:02:15.391Z,15.83
2019-02-19T13:03:15.454Z,15.85
2019-02-19T13:04:15.359Z,15.73
2019-02-19T13:05:15.349Z,15.69
2019-02-19T13:06:15.394Z,15.77
2019-02-19T13:07:15.327Z,15.72
2019-02-19T13:08:15.322Z,15.77
2019-02-19T13:09:15.310Z,15.77
2019-02-19T13:10:15.294Z,15.77
2019-02-19T13:11:15.308Z,15.76
2019-02-19T13:12:15.277Z,15.56